Latest Weather Observations for St Kilda Harbour RMYS

IDV60901

Issued at 5:51 pm EDT Wednesday 26 February 2020 (issued every 10 minutes, with the page automatically refreshed every 10 minutes)

About weather observations | Map of Melbourne area stations | Latest observations for Melbourne area | Other Formats
Station Details ID: 086220 Name: ST KILDA HARBOUR - RMYS Lat: -37.86 Lon: 144.96 Height: 6.4 m
Data from the previous 72 hours. | See also: Recent months at St Kilda Harbour RMYS
Date/Time
EDT
Temp
°C
App
Temp
°C
Dew
Point
°C
Rel
Hum
%
Delta-T
°C
Wind Press
QNH
hPa
Press
MSL
hPa
Rain since
9am
mm
Dir  Spd
km/h
Gust
km/h
Spd
kts
Gust
kts
26/05:30pm - - - - - S 35 46 19 25 - - -
26/05:00pm - - - - - S 35 43 19 23 - - -
26/04:30pm - - - - - S 35 44 19 24 - - -
26/04:00pm - - - - - S 33 46 18 25 - - -
26/03:30pm - - - - - S 35 44 19 24 - - -
26/03:00pm - - - - - S 39 44 21 24 - - -
26/02:30pm - - - - - SSW 37 44 20 24 - - -
26/02:00pm - - - - - SSW 43 50 23 27 - - -
26/01:30pm - - - - - SSW 28 39 15 21 - - -
26/01:00pm - - - - - SSW 24 32 13 17 - - -
26/12:30pm - - - - - SW 30 48 16 26 - - -
26/12:28pm - - - - - SW 30 48 16 26 - - -
26/12:00pm - - - - - WSW 35 44 19 24 - - -
26/11:30am - - - - - WSW 41 50 22 27 - - -
26/11:00am - - - - - WSW 39 50 21 27 - - -
26/10:30am - - - - - SW 37 50 20 27 - - -
26/10:24am - - - - - SW 44 61 24 33 - - -
26/10:08am - - - - - WSW 57 72 31 39 - - -
26/10:00am - - - - - WSW 56 69 30 37 - - -
26/09:57am - - - - - WSW 59 80 32 43 - - -
26/09:48am - - - - - WSW 39 72 21 39 - - -
26/09:46am - - - - - WSW 32 52 17 28 - - -
26/09:30am - - - - - W 33 44 18 24 - - -
26/09:00am - - - - - WNW 26 37 14 20 - - -
26/08:30am - - - - - WNW 28 33 15 18 - - -
26/08:00am - - - - - WNW 26 32 14 17 - - -
26/07:30am - - - - - NW 20 28 11 15 - - -
26/07:00am - - - - - NW 17 24 9 13 - - -
26/06:30am - - - - - W 20 28 11 15 - - -
26/06:00am - - - - - W 30 37 16 20 - - -
26/05:30am - - - - - W 19 22 10 12 - - -
26/05:00am - - - - - W 24 30 13 16 - - -
26/04:30am - - - - - W 24 32 13 17 - - -
26/04:00am - - - - - W 28 35 15 19 - - -
26/03:30am - - - - - W 22 28 12 15 - - -
26/03:00am - - - - - W 20 24 11 13 - - -
26/02:30am - - - - - WSW 19 32 10 17 - - -
26/02:00am - - - - - SSW 11 15 6 8 - - -
26/01:30am - - - - - SSW 19 22 10 12 - - -
26/01:00am - - - - - SSW 19 22 10 12 - - -
26/12:30am - - - - - S 9 15 5 8 - - -
26/12:00am - - - - - S 9 13 5 7 - - -
 
Date/Time
EDT
Temp
°C
App
Temp
°C
Dew
Point
°C
Rel
Hum
%
Delta-T
°C
Wind Press
QNH
hPa
Press
MSL
hPa
Rain since
9am
mm
Dir  Spd
km/h
Gust
km/h
Spd
kts
Gust
kts
25/11:30pm - - - - - S 17 20 9 11 - - -
25/11:00pm - - - - - S 24 30 13 16 - - -
25/10:30pm - - - - - S 28 32 15 17 - - -
25/10:00pm - - - - - SSW 26 30 14 16 - - -
25/09:30pm - - - - - SSW 22 24 12 13 - - -
25/09:00pm - - - - - SSW 24 28 13 15 - - -
25/08:30pm - - - - - SSW 20 24 11 13 - - -
25/08:00pm - - - - - S 22 28 12 15 - - -
25/07:30pm - - - - - S 32 39 17 21 - - -
25/07:00pm - - - - - S 33 43 18 23 - - -
25/06:30pm - - - - - S 32 37 17 20 - - -
25/06:00pm - - - - - S 33 41 18 22 - - -
25/05:30pm - - - - - S 37 44 20 24 - - -
25/05:27pm - - - - - S 37 44 20 24 - - -
25/05:00pm - - - - - SSE 20 24 11 13 - - -
25/04:30pm - - - - - S 17 22 9 12 - - -
25/04:00pm - - - - - SSW 20 35 11 19 - - -
25/03:30pm - - - - - S 15 32 8 17 - - -
25/03:00pm - - - - - W 22 39 12 21 - - -
25/02:56pm - - - - - NW 28 39 15 21 - - -
25/02:30pm - - - - - NW 41 54 22 29 - - -
25/02:25pm - - - - - NW 39 52 21 28 - - -
25/02:16pm - - - - - WNW 28 50 15 27 - - -
25/02:00pm - - - - - WNW 28 39 15 21 - - -
25/01:30pm - - - - - NW 26 35 14 19 - - -
25/01:00pm - - - - - NNW 20 30 11 16 - - -
25/12:30pm - - - - - NNW 24 35 13 19 - - -
25/12:00pm - - - - - N 7 13 4 7 - - -
25/11:30am - - - - - NNE 11 13 6 7 - - -
25/11:00am - - - - - NNE 13 19 7 10 - - -
25/10:30am - - - - - NNE 15 19 8 10 - - -
25/10:00am - - - - - NNE 11 17 6 9 - - -
25/09:30am - - - - - CALM 0 4 0 2 - - -
25/09:00am - - - - - NNE 4 6 2 3 - - -
25/08:30am - - - - - CALM 0 2 0 1 - - -
25/08:00am - - - - - NNW 2 2 1 1 - - -
25/07:30am - - - - - WSW 2 2 1 1 - - -
25/07:00am - - - - - N 4 6 2 3 - - -
25/06:30am - - - - - CALM 0 2 0 1 - - -
25/06:00am - - - - - ESE 2 4 1 2 - - -
25/05:30am - - - - - WSW 2 4 1 2 - - -
25/05:00am - - - - - ESE 6 9 3 5 - - -
25/04:30am - - - - - E 7 11 4 6 - - -
25/04:00am - - - - - SE 7 9 4 5 - - -
25/03:30am - - - - - ESE 4 6 2 3 - - -
25/03:00am - - - - - S 4 6 2 3 - - -
25/02:30am - - - - - SSE 4 7 2 4 - - -
25/02:00am - - - - - NE 6 7 3 4 - - -
25/01:30am - - - - - NNW 4 9 2 5 - - -
25/01:00am - - - - - NW 9 13 5 7 - - -
25/12:30am - - - - - NNW 13 15 7 8 - - -
25/12:00am - - - - - NNE 9 13 5 7 - - -
 
Date/Time
EDT
Temp
°C
App
Temp
°C
Dew
Point
°C
Rel
Hum
%
Delta-T
°C
Wind Press
QNH
hPa
Press
MSL
hPa
Rain since
9am
mm
Dir  Spd
km/h
Gust
km/h
Spd
kts
Gust
kts
24/11:30pm - - - - - N 15 17 8 9 - - -
24/11:00pm - - - - - NE 9 13 5 7 - - -
24/10:30pm - - - - - SSE 11 15 6 8 - - -
24/10:00pm - - - - - SSE 17 19 9 10 - - -
24/09:30pm - - - - - SSW 24 30 13 16 - - -
24/09:00pm - - - - - S 26 30 14 16 - - -
24/08:30pm - - - - - S 22 28 12 15 - - -
24/08:00pm - - - - - SSE 13 17 7 9 - - -
24/07:30pm - - - - - SE 7 11 4 6 - - -
24/07:00pm - - - - - S 11 13 6 7 - - -
24/06:30pm - - - - - SSW 15 19 8 10 - - -
24/06:00pm - - - - - SSW 17 20 9 11 - - -
24/05:30pm - - - - - SW 19 26 10 14 - - -
24/05:00pm - - - - - ENE 4 7 2 4 - - -
24/04:30pm - - - - - SE 7 11 4 6 - - -
24/04:00pm - - - - - SSW 15 19 8 10 - - -
24/03:30pm - - - - - SSE 13 17 7 9 - - -
24/03:00pm - - - - - S 17 20 9 11 - - -
24/02:30pm - - - - - S 19 24 10 13 - - -
24/02:00pm - - - - - SSW 24 28 13 15 - - -
24/01:30pm - - - - - SSW 20 24 11 13 - - -
24/01:00pm - - - - - SW 11 15 6 8 - - -
24/12:30pm - - - - - SSE 6 11 3 6 - - -
24/12:00pm - - - - - SSW 19 20 10 11 - - -
24/11:30am - - - - - SSE 6 7 3 4 - - -
24/11:00am - - - - - S 19 22 10 12 - - -
24/10:30am - - - - - SSE 7 17 4 9 - - -
24/10:00am - - - - - SE 6 7 3 4 - - -
24/09:30am - - - - - ENE 7 13 4 7 - - -
24/09:00am - - - - - NE 9 13 5 7 - - -
24/08:30am - - - - - NNE 6 11 3 6 - - -
24/08:00am - - - - - N 6 9 3 5 - - -
24/07:30am - - - - - NNE 9 15 5 8 - - -
24/07:00am - - - - - N 6 7 3 4 - - -
24/06:30am - - - - - N 6 9 3 5 - - -
24/06:00am - - - - - WNW 9 11 5 6 - - -
24/05:30am - - - - - WNW 7 11 4 6 - - -
24/05:00am - - - - - SW 7 13 4 7 - - -
24/04:30am - - - - - W 6 7 3 4 - - -
24/04:00am - - - - - WSW 11 13 6 7 - - -
24/03:30am - - - - - WSW 6 9 3 5 - - -
24/03:00am - - - - - W 9 13 5 7 - - -
24/02:30am - - - - - WSW 7 13 4 7 - - -
24/02:00am - - - - - WSW 9 13 5 7 - - -
24/01:30am - - - - - WSW 17 20 9 11 - - -
24/01:00am - - - - - WSW 17 20 9 11 - - -
24/12:30am - - - - - WSW 20 24 11 13 - - -
24/12:00am - - - - - WSW 20 24 11 13 - - -
 
Date/Time
EDT
Temp
°C
App
Temp
°C
Dew
Point
°C
Rel
Hum
%
Delta-T
°C
Wind Press
QNH
hPa
Press
MSL
hPa
Rain since
9am
mm
Dir  Spd
km/h
Gust
km/h
Spd
kts
Gust
kts
23/11:30pm - - - - - SSW 15 19 8 10 - - -
23/11:00pm - - - - - SSW 13 17 7 9 - - -
23/10:30pm - - - - - SSW 13 19 7 10 - - -
23/10:00pm - - - - - SSW 9 13 5 7 - - -
23/09:30pm - - - - - S 11 13 6 7 - - -
23/09:00pm - - - - - S 17 20 9 11 - - -
23/08:30pm - - - - - SSE 19 24 10 13 - - -
23/08:00pm - - - - - SSE 22 28 12 15 - - -
23/07:30pm - - - - - S 26 30 14 16 - - -
23/07:00pm - - - - - S 30 33 16 18 - - -
23/06:30pm - - - - - S 24 32 13 17 - - -
23/06:00pm - - - - - SSW 37 44 20 24 - - -

Latest Capital City Observations: Canberra | Sydney | Melbourne | Brisbane | Adelaide | Perth | Hobart | Darwin

Other formats

Comma delimited format used in spreadsheet applications
http://www.bom.gov.au/fwo/IDV60901/IDV60901.95864.axf

JavaScript Object Notation format (JSON) in row-major order
http://www.bom.gov.au/fwo/IDV60901/IDV60901.95864.json

Data quality

Most of these data are generated automatically and are frequently updated. Quality checks on data are not normally performed. It is possible for incorrect values to appear. Refer to information at About Latest Weather Observations and please check the disclaimer before using these data.